createdAt,value
2023-03-13T00:00:57.266Z,993.9
2023-03-13T00:11:03.957Z,993.5
2023-03-13T00:21:10.721Z,993.3
2023-03-13T00:31:17.558Z,993
2023-03-13T00:41:24.173Z,992.9
2023-03-13T00:51:30.846Z,992.7
2023-03-13T01:01:37.599Z,992.7
2023-03-13T01:11:44.319Z,992.4
2023-03-13T01:21:51.165Z,992.2
2023-03-13T01:31:57.757Z,992
2023-03-13T01:42:04.499Z,991.7
2023-03-13T01:52:11.207Z,991.6
2023-03-13T02:02:17.943Z,991.3
2023-03-13T02:12:24.636Z,991.1
2023-03-13T02:22:31.532Z,990.9
2023-03-13T02:32:38.143Z,990.7
2023-03-13T02:42:44.857Z,990.6
2023-03-13T02:52:52.791Z,990.5
2023-03-13T03:02:59.540Z,990.4
2023-03-13T03:13:06.246Z,990.2
2023-03-13T03:23:14.213Z,990
2023-03-13T03:33:20.935Z,990.1
2023-03-13T03:43:27.672Z,989.9
2023-03-13T03:53:34.360Z,990
2023-03-13T04:03:41.180Z,989.8
2023-03-13T04:13:47.805Z,989.9
2023-03-13T04:23:54.576Z,989.6
2023-03-13T04:34:01.269Z,989.5
2023-03-13T04:44:08.031Z,989.5
2023-03-13T04:54:14.736Z,989.4
2023-03-13T05:04:21.475Z,989.3
2023-03-13T05:14:28.187Z,989.3
2023-03-13T05:24:34.906Z,989.1
2023-03-13T05:34:41.621Z,989.1
2023-03-13T05:44:48.375Z,989
2023-03-13T05:54:55.100Z,988.9
2023-03-13T06:05:01.959Z,989
2023-03-13T06:15:10.589Z,989.1
2023-03-13T06:25:15.250Z,989.2
2023-03-13T06:35:21.976Z,989.2
2023-03-13T06:45:28.737Z,989.2
2023-03-13T06:55:35.420Z,989.3
2023-03-13T07:05:42.160Z,989.3
2023-03-13T07:15:48.859Z,989.3
2023-03-13T07:25:55.648Z,989.3
2023-03-13T07:36:02.342Z,989.4
2023-03-13T07:46:09.460Z,989.2
2023-03-13T07:56:15.783Z,989
2023-03-13T08:06:22.519Z,989
2023-03-13T08:16:29.238Z,988.8
2023-03-13T08:26:35.956Z,988.9
2023-03-13T08:36:42.677Z,988.8
2023-03-13T08:46:49.607Z,988.8
2023-03-13T08:56:56.107Z,988.8
2023-03-13T09:07:02.869Z,988.8
2023-03-13T09:17:09.567Z,988.8
2023-03-13T09:27:16.312Z,988.7
2023-03-13T09:37:23.015Z,988.6
2023-03-13T09:47:29.779Z,988.5
2023-03-13T09:57:36.442Z,988.4
2023-03-13T10:07:44.434Z,988.5
2023-03-13T10:17:52.381Z,988.2
2023-03-13T10:27:59.111Z,988.1
2023-03-13T10:38:05.805Z,988
2023-03-13T10:48:12.540Z,988.1
2023-03-13T10:58:19.241Z,987.8
2023-03-13T11:08:26.094Z,987.6
2023-03-13T11:18:32.707Z,987.5
2023-03-13T11:28:39.454Z,987.3
2023-03-13T11:38:46.215Z,987
2023-03-13T11:48:52.908Z,986.9
2023-03-13T11:58:59.582Z,986.8
2023-03-13T12:09:06.387Z,986.4
2023-03-13T12:19:13.046Z,986.2
2023-03-13T12:29:19.777Z,986.1
2023-03-13T12:39:27.722Z,986
2023-03-13T12:49:34.474Z,985.9
2023-03-13T12:59:41.225Z,985.7
2023-03-13T13:09:49.159Z,985.5
2023-03-13T13:19:55.877Z,985.4
2023-03-13T13:30:02.627Z,985.2
2023-03-13T13:40:09.358Z,985.1
2023-03-13T13:50:16.062Z,985
2023-03-13T14:00:22.772Z,984.8
2023-03-13T14:10:29.608Z,984.7
2023-03-13T14:20:36.187Z,984.4
2023-03-13T14:30:43.023Z,984.3
2023-03-13T14:40:49.644Z,984.1
2023-03-13T14:51:08.892Z,984.1
2023-03-13T15:01:03.111Z,984.1
2023-03-13T15:11:11.056Z,983.9
2023-03-13T15:21:19.123Z,983.7
2023-03-13T15:31:25.806Z,983.5
2023-03-13T15:41:32.485Z,983.3
2023-03-13T15:51:39.231Z,983.2
2023-03-13T16:01:45.914Z,982.9
2023-03-13T16:11:52.665Z,982.7
2023-03-13T16:21:59.358Z,982.7
2023-03-13T16:32:07.346Z,982.5
2023-03-13T16:42:14.080Z,982.4
2023-03-13T16:52:20.818Z,982.3
2023-03-13T17:02:27.595Z,982.5
2023-03-13T17:12:34.300Z,982.5
2023-03-13T17:22:40.958Z,982.5
2023-03-13T17:32:47.768Z,982.3
2023-03-13T17:42:54.410Z,982.2
2023-03-13T17:53:01.160Z,982.2
2023-03-13T18:03:07.910Z,981.9
2023-03-13T18:13:15.856Z,982.1
2023-03-13T18:23:22.549Z,982.1
2023-03-13T18:33:29.304Z,982.1
2023-03-13T18:43:36.155Z,982.3
2023-03-13T18:53:42.723Z,982.2
2023-03-13T19:03:49.438Z,982.1
2023-03-13T19:13:56.203Z,982.1
2023-03-13T19:24:02.901Z,981.9
2023-03-13T19:34:09.636Z,981.5
2023-03-13T19:44:16.333Z,981.1
2023-03-13T19:54:23.096Z,981
2023-03-13T20:04:29.777Z,981.1
2023-03-13T20:14:36.547Z,981.2
2023-03-13T20:24:43.233Z,981.4
2023-03-13T20:34:49.991Z,981.4
2023-03-13T20:44:56.690Z,981.3
2023-03-13T20:55:03.584Z,981.3
2023-03-13T21:05:10.118Z,981.2
2023-03-13T21:15:16.887Z,981.3
2023-03-13T21:25:23.649Z,981.2
2023-03-13T21:35:30.393Z,980.7
2023-03-13T21:45:37.023Z,980.8
2023-03-13T21:55:44.112Z,981
2023-03-13T22:05:50.477Z,981.2
2023-03-13T22:15:57.226Z,981.3
2023-03-13T22:26:03.993Z,981.7
2023-03-13T22:36:10.774Z,981.3
2023-03-13T22:46:17.395Z,981.1
2023-03-13T22:56:26.459Z,981
2023-03-13T23:06:30.802Z,980.7
2023-03-13T23:16:37.559Z,981.1
2023-03-13T23:26:44.263Z,981.2
2023-03-13T23:36:51.014Z,980.7
2023-03-13T23:46:57.725Z,980.7
2023-03-13T23:57:04.468Z,980.6
